Aérodrome :
LOGIN :

S'inscrire | Disclaimer

   EN    FR    IT 

 










Légende :    VFR   VFR Marginal   IFR   IFR Intensif   IFR Très Intensif
Visi : 
Plafond : 
>= 8 km
>= 3000ft
5 à 8 km
1000 à 3000 ft
1500m à 5 km
500 à 1000 ft
800 à 1500m
200 à 500 ft
< 800m
< 200 ft
Symboles :   Orages  Brouillard  Fortes neiges  Fortes précipitations  Vent > 20 kt
SIGMETs :   Divers  Orages  Givrage  Turbulence  Onde Orograph.  Cendres Volcan.







- Altitude de l'aérodrome : 529 ft
- Code IATA : CHR
- Voir les cartes d'approche


LFLX - Chateauroux

DERNIER METAR :
  • 180730Z AUTO 06005KT 010V100 CAVOK 18/10 Q1024 NOSIG

METARs EXPIRÉS :
  • 180700Z AUTO 03004KT CAVOK 16/11 Q1024 NOSIG
  • 180630Z AUTO 03004KT CAVOK 15/11 Q1024 NOSIG
  • 180600Z AUTO 02003KT CAVOK 13/10 Q1024 NOSIG
  • 180530Z AUTO 01003KT CAVOK 11/09 Q1024 NOSIG
  • 180500Z AUTO 36003KT 340V040 CAVOK 11/09 Q1023 NOSIG

TAF TAF LFLX
Valide du 18 à 06h jusqu'au 19 à 12h UTC


180500Z 1806/1912 32005KT CAVOK
Pas de NOTAMs connus pour ce terrain.



MET'MAP, la Météo Aéronautique d'un coup d'oeil ! - Copyright ORBIFLY Décembre 2007 - Disclaimer

ORBIFLY MET'MAP TEAM :

Programmation & Développement : Alexandra Zaïnal
Conception & Développement : Baudouin d'Aumeries
Co-Programmation & Développement : Marc-Olivier Méhu
Soutien technique & logistique : Manuel Goepfert

Contact : metmap@orbifly.com




SOURCES & CREDITS :

   NOAA